Time;durP1;ratioP1;P1;durP2;ratioP2;P2;SDS_P1;SDS_P2;PMS_P1;PMS_P2;Temp;Humidity;BMP_temperature;BMP_pressure;BME280_temperature;BME280_humidity;BME280_pressure;Samples;Min_cycle;Max_cycle;Signal;HPM_P1;HPM_P2
2022/10/25 00:00:56;;;;;;;26.58;11.00;;;;;;;13.09;62.81;95389.16;5028778;28;20186;-67
2022/10/25 00:03:21;;;;;;;22.20;11.25;;;;;;;13.05;62.92;95389.66;5030983;28;20175;-68
2022/10/25 00:05:47;;;;;;;19.65;11.23;;;;;;;13.06;62.92;95386.03;5027792;28;20259;-67
2022/10/25 00:08:12;;;;;;;18.95;10.75;;;;;;;13.13;62.76;95385.25;5029944;28;20190;-67
2022/10/25 00:10:38;;;;;;;19.10;11.25;;;;;;;13.05;62.85;95384.38;5032515;28;20198;-66
2022/10/25 00:13:04;;;;;;;20.80;10.18;;;;;;;12.96;63.04;95383.50;5031001;28;20712;-67
2022/10/25 00:15:29;;;;;;;17.35;10.90;;;;;;;12.82;63.46;95384.91;5030582;28;20198;-66
2022/10/25 00:17:55;;;;;;;18.88;11.63;;;;;;;13.00;63.14;95392.78;5025000;28;20265;-66
2022/10/25 00:20:20;;;;;;;24.42;11.25;;;;;;;12.89;63.30;95395.69;5032257;28;20178;-67
2022/10/25 00:22:45;;;;;;;18.67;11.20;;;;;;;12.84;63.35;95388.22;5032014;28;20248;-67
2022/10/25 00:25:11;;;;;;;20.20;11.85;;;;;;;12.55;64.38;95386.72;5031678;28;20174;-67
2022/10/25 00:27:37;;;;;;;17.60;9.90;;;;;;;12.71;64.03;95395.75;5026417;28;20232;-67
2022/10/25 00:30:05;;;;;;;19.00;10.68;;;;;;;12.58;64.28;95393.50;5029932;28;20193;-67
2022/10/25 00:32:32;;;;;;;22.60;9.95;;;;;;;12.79;63.44;95396.59;5029265;28;20194;-66
2022/10/25 00:34:57;;;;;;;20.35;10.32;;;;;;;12.58;63.89;95401.41;5029646;28;20220;-67
2022/10/25 00:37:23;;;;;;;17.38;9.88;;;;;;;12.57;64.20;95402.41;5029999;28;20193;-67
2022/10/25 00:39:48;;;;;;;18.67;9.00;;;;;;;12.61;64.00;95392.38;5024528;28;20186;-67
2022/10/25 00:42:20;;;;;;;14.05;9.50;;;;;;;12.62;63.83;95384.31;5025675;28;20193;-67
2022/10/25 00:44:54;;;;;;;22.35;10.48;;;;;;;12.67;63.59;95395.22;5026989;28;20178;-67
2022/10/25 00:47:19;;;;;;;18.77;10.82;;;;;;;12.51;64.23;95385.41;5029589;28;20185;-67
2022/10/25 00:50:01;;;;;;;21.52;10.30;;;;;;;12.51;64.09;95381.91;5028691;28;20190;-67
2022/10/25 00:52:31;;;;;;;21.13;9.77;;;;;;;12.56;63.82;95375.22;5025594;28;20599;-67
2022/10/25 00:54:58;;;;;;;20.08;9.27;;;;;;;12.39;64.38;95368.16;5027681;28;20240;-67
2022/10/25 00:57:34;;;;;;;16.35;9.90;;;;;;;12.50;64.31;95375.00;5028859;28;20186;-67
2022/10/25 01:00:00;;;;;;;21.88;9.65;;;;;;;12.44;64.03;95370.34;5031465;28;20637;-67
2022/10/25 01:02:26;;;;;;;21.17;10.25;;;;;;;12.48;64.21;95376.94;5027327;28;20252;-67
2022/10/25 01:04:52;;;;;;;19.75;10.32;;;;;;;12.46;64.32;95376.28;5029234;28;20186;-67
2022/10/25 01:07:18;;;;;;;18.38;9.63;;;;;;;12.43;64.27;95368.66;5027491;28;20210;-67
2022/10/25 01:09:43;;;;;;;22.13;9.85;;;;;;;12.25;65.05;95369.53;5024283;28;20197;-67
2022/10/25 01:12:09;;;;;;;19.55;10.63;;;;;;;12.24;64.90;95370.53;5026456;28;20192;-67
2022/10/25 01:14:37;;;;;;;19.30;10.27;;;;;;;12.26;64.81;95373.00;5031920;28;20202;-66
2022/10/25 01:17:31;;;;;;;22.67;9.90;;;;;;;12.31;64.42;95368.09;5027444;28;20549;-66
2022/10/25 01:20:15;;;;;;;24.08;9.85;;;;;;;12.47;63.93;95373.47;5028295;28;20270;-67
2022/10/25 01:22:56;;;;;;;20.00;10.63;;;;;;;12.44;64.28;95365.06;5030774;28;20232;-67
2022/10/25 01:25:51;;;;;;;21.65;10.77;;;;;;;12.35;64.49;95370.28;5041642;28;20178;-67
2022/10/25 01:28:47;;;;;;;18.10;9.27;;;;;;;12.43;64.24;95371.31;5027490;28;20191;-67
2022/10/25 01:31:37;;;;;;;22.83;10.77;;;;;;;12.30;64.57;95359.38;5024967;28;20202;-66
2022/10/25 01:34:12;;;;;;;20.40;10.70;;;;;;;12.23;64.83;95363.59;5028570;28;20237;-66
2022/10/25 01:37:01;;;;;;;15.35;9.05;;;;;;;12.19;65.09;95359.63;5026475;28;20659;-66
2022/10/25 01:39:32;;;;;;;17.83;9.32;;;;;;;12.41;64.31;95362.75;5025132;28;20232;-66
2022/10/25 01:42:37;;;;;;;22.02;8.57;;;;;;;12.31;64.11;95362.81;5027608;28;20194;-66
2022/10/25 01:45:13;;;;;;;13.23;8.88;;;;;;;12.08;65.02;95359.84;5024242;28;20187;-67
2022/10/25 01:48:06;;;;;;;17.55;8.65;;;;;;;12.03;65.03;95362.09;5030518;28;20533;-66
2022/10/25 01:50:38;;;;;;;16.35;8.30;;;;;;;12.14;64.63;95356.63;5026906;28;20303;-66
2022/10/25 01:53:03;;;;;;;17.40;8.65;;;;;;;12.20;64.42;95350.72;5023369;28;20297;-65
2022/10/25 01:55:35;;;;;;;22.08;9.07;;;;;;;12.16;64.76;95359.91;5030388;28;20618;-65
2022/10/25 01:58:42;;;;;;;13.70;7.85;;;;;;;12.30;64.41;95351.47;5022237;28;20665;-66
2022/10/25 02:01:32;;;;;;;22.15;8.77;;;;;;;11.92;65.20;95347.34;4935124;29;20235;-66
2022/10/25 02:03:58;;;;;;;22.55;8.80;;;;;;;11.92;65.58;95352.63;4933550;29;20186;-66
2022/10/25 02:06:34;;;;;;;19.80;8.65;;;;;;;11.95;65.25;95352.34;4935741;29;20355;-66
2022/10/25 02:09:12;;;;;;;15.63;9.10;;;;;;;11.91;65.06;95343.91;4933626;29;20185;-66
2022/10/25 02:11:38;;;;;;;22.65;8.43;;;;;;;11.89;65.23;95351.16;4935681;29;20189;-66
2022/10/25 02:14:21;;;;;;;17.02;9.15;;;;;;;11.94;65.15;95355.94;4950275;29;20200;-66
2022/10/25 02:16:56;;;;;;;24.40;9.80;;;;;;;11.91;65.12;95348.34;4950081;29;20189;-66
2022/10/25 02:19:30;;;;;;;19.27;9.88;;;;;;;11.98;65.04;95356.50;4935195;29;20193;-66
2022/10/25 02:21:57;;;;;;;18.48;8.73;;;;;;;11.87;65.34;95352.28;4949346;29;20192;-66
2022/10/25 02:24:25;;;;;;;20.67;9.20;;;;;;;11.83;65.42;95351.69;4933637;29;20181;-66
2022/10/25 02:26:53;;;;;;;19.33;9.05;;;;;;;11.88;65.46;95349.47;4950433;29;20185;-66
2022/10/25 02:29:21;;;;;;;16.77;9.80;;;;;;;11.78;65.61;95343.41;4934894;29;20232;-66
2022/10/25 02:31:47;;;;;;;23.95;9.65;;;;;;;11.82;65.94;95346.59;4976102;28;20229;-67
2022/10/25 02:34:12;;;;;;;16.70;8.88;;;;;;;11.81;65.71;95332.56;5027095;28;20333;-66
2022/10/25 02:36:38;;;;;;;18.40;10.07;;;;;;;11.87;65.70;95342.56;5025597;28;20268;-66
2022/10/25 02:39:05;;;;;;;14.93;9.40;;;;;;;11.89;65.69;95343.25;5027752;28;20232;-66
2022/10/25 02:41:32;;;;;;;19.08;9.05;;;;;;;11.91;65.63;95332.53;5029012;28;20193;-66
2022/10/25 02:43:58;;;;;;;23.77;8.43;;;;;;;11.80;65.93;95335.38;5029717;28;20206;-66
2022/10/25 02:46:23;;;;;;;23.33;9.27;;;;;;;11.82;65.86;95331.63;5027742;28;20236;-66
2022/10/25 02:48:49;;;;;;;18.35;9.63;;;;;;;11.87;65.76;95334.66;5030082;28;20190;-66
2022/10/25 02:51:16;;;;;;;19.80;8.93;;;;;;;11.63;66.26;95331.78;5026640;28;20613;-66
2022/10/25 02:53:42;;;;;;;17.30;9.05;;;;;;;11.52;66.90;95335.47;5030113;28;20635;-66
2022/10/25 02:56:11;;;;;;;20.15;9.65;;;;;;;11.66;66.30;95337.56;5028212;28;20217;-66
2022/10/25 02:58:38;;;;;;;21.00;9.63;;;;;;;11.65;65.83;95340.34;5024158;28;20202;-67
2022/10/25 03:01:05;;;;;;;17.38;8.75;;;;;;;11.48;66.04;95334.09;5019834;28;20237;-67
2022/10/25 03:03:30;;;;;;;16.70;8.57;;;;;;;11.53;65.78;95347.63;5027260;28;20185;-67
2022/10/25 03:05:56;;;;;;;13.77;8.90;;;;;;;11.52;66.35;95347.78;5022116;28;20182;-66
2022/10/25 03:08:22;;;;;;;15.52;7.75;;;;;;;11.50;66.20;95333.94;5026855;28;20180;-66
2022/10/25 03:10:49;;;;;;;13.55;8.90;;;;;;;11.59;66.10;95338.31;5023971;28;20205;-66
2022/10/25 03:13:15;;;;;;;19.33;8.27;;;;;;;11.62;65.57;95332.72;5029538;28;20190;-67
2022/10/25 03:15:41;;;;;;;21.75;9.38;;;;;;;11.58;65.52;95328.75;5026381;28;20198;-66
2022/10/25 03:18:07;;;;;;;18.77;8.93;;;;;;;11.46;65.93;95331.59;5024730;28;20267;-65
2022/10/25 03:20:32;;;;;;;17.90;8.20;;;;;;;11.40;66.14;95326.09;5022773;28;20182;-67
2022/10/25 03:22:58;;;;;;;20.52;9.10;;;;;;;11.25;66.15;95331.03;5028284;28;20555;-67
2022/10/25 03:25:23;;;;;;;18.05;8.82;;;;;;;11.35;66.74;95336.25;5026974;28;20190;-67
2022/10/25 03:27:49;;;;;;;20.27;9.13;;;;;;;11.31;66.80;95333.09;5026501;28;20267;-65
2022/10/25 03:30:15;;;;;;;22.15;9.57;;;;;;;11.20;67.01;95334.13;5028484;28;20198;-65
2022/10/25 03:32:40;;;;;;;19.15;9.55;;;;;;;11.41;66.83;95346.19;5027067;28;20213;-65
2022/10/25 03:35:06;;;;;;;17.83;8.65;;;;;;;11.32;66.86;95337.38;5027745;28;20210;-65
2022/10/25 03:37:32;;;;;;;17.42;9.45;;;;;;;11.12;67.39;95339.31;5024691;28;20648;-66
2022/10/25 03:39:57;;;;;;;15.15;9.07;;;;;;;11.01;67.89;95339.50;5028742;28;20190;-66
2022/10/25 03:42:23;;;;;;;19.40;9.52;;;;;;;11.14;67.90;95332.06;5028672;28;20187;-66
2022/10/25 03:44:48;;;;;;;18.58;9.23;;;;;;;11.21;67.31;95342.84;5030426;28;20266;-66
2022/10/25 03:47:14;;;;;;;17.33;9.23;;;;;;;11.19;67.01;95344.81;5029262;28;20197;-66
2022/10/25 03:49:39;;;;;;;20.75;9.30;;;;;;;11.25;67.07;95339.78;5030036;28;20183;-66
2022/10/25 03:52:06;;;;;;;22.42;9.93;;;;;;;11.20;67.17;95335.91;5030868;28;20217;-66
2022/10/25 03:54:33;;;;;;;26.20;10.32;;;;;;;11.09;67.36;95330.88;5028920;28;20206;-66
2022/10/25 03:56:59;;;;;;;22.77;11.27;;;;;;;11.08;67.95;95337.13;5021547;28;20210;-65
2022/10/25 03:59:24;;;;;;;18.42;10.00;;;;;;;11.16;67.45;95324.03;5025275;28;20198;-66
2022/10/25 04:01:50;;;;;;;19.08;10.27;;;;;;;11.29;66.85;95323.69;5027047;28;20182;-65
2022/10/25 04:04:16;;;;;;;22.13;10.73;;;;;;;11.30;66.80;95318.25;5031840;28;20261;-65
2022/10/25 04:06:41;;;;;;;19.70;10.50;;;;;;;11.24;67.04;95313.59;5028656;28;20205;-65
2022/10/25 04:09:07;;;;;;;19.60;11.30;;;;;;;11.12;67.58;95322.66;5028657;28;20195;-66
2022/10/25 04:11:32;;;;;;;21.60;10.13;;;;;;;11.13;67.48;95322.53;5026292;28;20187;-65
2022/10/25 04:13:58;;;;;;;17.52;9.95;;;;;;;10.99;67.91;95320.41;5025457;28;20202;-66
2022/10/25 04:16:24;;;;;;;23.48;10.20;;;;;;;11.00;67.99;95322.88;5028824;28;20222;-67
2022/10/25 04:18:52;;;;;;;16.45;9.23;;;;;;;10.97;67.82;95328.44;5025281;28;20201;-66
2022/10/25 04:21:18;;;;;;;18.05;9.70;;;;;;;10.97;67.37;95323.19;5024370;28;20186;-66
2022/10/25 04:23:43;;;;;;;17.40;9.50;;;;;;;10.95;67.31;95327.75;5030196;28;20591;-65
2022/10/25 04:26:09;;;;;;;19.80;10.00;;;;;;;10.88;67.70;95329.31;5028181;28;20197;-67
2022/10/25 04:28:34;;;;;;;21.90;9.48;;;;;;;10.96;67.26;95318.91;5032119;28;20656;-65
2022/10/25 04:30:59;;;;;;;20.40;10.25;;;;;;;10.93;67.26;95320.97;5024575;28;20178;-67
2022/10/25 04:33:25;;;;;;;19.98;10.32;;;;;;;10.89;67.73;95335.41;5018785;28;20230;-67
2022/10/25 04:35:55;;;;;;;20.42;10.57;;;;;;;10.87;67.93;95337.34;5021329;28;20276;-67
2022/10/25 04:38:22;;;;;;;19.38;10.73;;;;;;;10.76;68.36;95341.81;5023434;28;20190;-68
2022/10/25 04:40:58;;;;;;;27.42;11.38;;;;;;;10.78;68.37;95349.59;5028656;28;20232;-66
2022/10/25 04:43:25;;;;;;;18.92;9.98;;;;;;;10.89;68.06;95344.13;5031350;28;20190;-67
2022/10/25 04:45:51;;;;;;;22.27;10.68;;;;;;;10.94;68.09;95348.97;5023410;28;20199;-67
2022/10/25 04:48:17;;;;;;;20.30;10.07;;;;;;;10.78;68.43;95339.88;5029069;28;20259;-67
2022/10/25 04:50:43;;;;;;;29.90;10.65;;;;;;;10.78;68.83;95349.59;5030954;28;20186;-67
2022/10/25 04:53:09;;;;;;;19.30;10.18;;;;;;;10.81;68.75;95350.09;5029662;28;20186;-67
2022/10/25 04:55:34;;;;;;;22.00;11.23;;;;;;;10.91;68.46;95352.72;5029335;28;20206;-66
2022/10/25 04:58:00;;;;;;;29.08;11.82;;;;;;;10.89;68.52;95349.38;5030871;28;20178;-67
2022/10/25 05:00:25;;;;;;;23.25;11.82;;;;;;;10.83;68.56;95344.72;5026494;28;20208;-67
2022/10/25 05:02:54;;;;;;;17.17;10.80;;;;;;;10.75;69.12;95349.88;5028967;28;20188;-66
2022/10/25 05:05:22;;;;;;;23.20;12.27;;;;;;;10.87;68.67;95348.69;5029712;28;20281;-66
2022/10/25 05:07:47;;;;;;;31.45;13.70;;;;;;;10.93;68.24;95352.53;5029570;28;20347;-66
2022/10/25 05:10:13;;;;;;;22.30;12.43;;;;;;;11.01;68.43;95337.72;5028723;28;20287;-67
2022/10/25 05:12:38;;;;;;;27.27;13.43;;;;;;;11.00;68.24;95345.72;5010418;28;20197;-67
2022/10/25 05:15:05;;;;;;;25.83;13.73;;;;;;;11.14;67.83;95347.03;5026819;28;20296;-66
2022/10/25 05:17:30;;;;;;;24.95;13.20;;;;;;;11.14;67.75;95354.94;5021628;28;20190;-66
2022/10/25 05:19:56;;;;;;;24.88;12.52;;;;;;;11.09;68.33;95350.09;5026063;28;20185;-66
2022/10/25 05:22:21;;;;;;;33.58;14.10;;;;;;;11.22;68.04;95347.13;5023747;28;20190;-67
2022/10/25 05:24:47;;;;;;;27.75;13.02;;;;;;;11.13;67.99;95350.66;5026916;28;20237;-67
2022/10/25 05:27:13;;;;;;;32.05;14.27;;;;;;;11.18;67.81;95343.16;5025515;28;20182;-65
2022/10/25 05:29:38;;;;;;;34.83;13.98;;;;;;;10.73;69.65;95357.06;5024660;28;20232;-66
2022/10/25 05:32:04;;;;;;;27.48;13.77;;;;;;;11.11;68.72;95356.06;5026162;28;20736;-66
2022/10/25 05:34:29;;;;;;;29.10;13.20;;;;;;;11.32;67.70;95357.63;5029706;28;20238;-66
2022/10/25 05:36:54;;;;;;;24.70;13.43;;;;;;;11.09;68.54;95373.78;5011321;28;20302;-66
2022/10/25 05:39:20;;;;;;;27.23;14.65;;;;;;;11.09;68.81;95373.78;5028334;28;20202;-68
2022/10/25 05:41:46;;;;;;;31.50;14.18;;;;;;;11.42;67.44;95379.47;5019915;28;20213;-68
2022/10/25 05:44:11;;;;;;;24.42;12.40;;;;;;;11.36;67.16;95385.28;5027474;28;20275;-68
2022/10/25 05:46:37;;;;;;;28.23;12.70;;;;;;;11.38;67.14;95385.97;5026523;28;20186;-68
2022/10/25 05:49:02;;;;;;;21.65;12.60;;;;;;;11.52;66.70;95389.91;5028700;28;20294;-67
2022/10/25 05:51:30;;;;;;;26.27;12.55;;;;;;;11.50;66.85;95387.44;5030000;28;20187;-66
2022/10/25 05:53:58;;;;;;;25.23;11.82;;;;;;;11.42;67.26;95400.53;5022329;28;20218;-68
2022/10/25 05:56:26;;;;;;;27.50;12.93;;;;;;;11.60;66.58;95408.44;5024224;28;20244;-67
2022/10/25 05:58:52;;;;;;;26.30;13.52;;;;;;;11.63;66.75;95408.16;5038990;28;20194;-66
2022/10/25 06:01:20;;;;;;;24.58;11.55;;;;;;;11.70;66.43;95411.84;5029987;28;20205;-66
2022/10/25 06:03:50;;;;;;;24.08;11.48;;;;;;;11.67;66.43;95412.13;5029220;28;20289;-66
2022/10/25 06:06:16;;;;;;;19.08;11.73;;;;;;;11.70;66.23;95414.47;5024693;28;20240;-66
2022/10/25 06:08:42;;;;;;;28.40;12.85;;;;;;;11.84;66.26;95410.50;5024086;28;20202;-67
2022/10/25 06:11:10;;;;;;;19.35;11.52;;;;;;;11.85;66.23;95412.16;5030217;28;20291;-66
2022/10/25 06:13:37;;;;;;;21.42;12.55;;;;;;;11.95;66.34;95414.75;5026182;28;20926;-67
2022/10/25 06:16:08;;;;;;;29.27;12.65;;;;;;;12.16;65.39;95414.44;5023268;28;20224;-68
2022/10/25 06:18:35;;;;;;;25.83;13.05;;;;;;;12.31;65.16;95413.75;5024851;28;20178;-68
2022/10/25 06:21:25;;;;;;;25.30;12.45;;;;;;;12.40;65.05;95421.72;5028575;28;20197;-68
2022/10/25 06:23:51;;;;;;;28.42;14.50;;;;;;;12.35;65.79;95422.19;5018678;28;20384;-68
2022/10/25 06:26:22;;;;;;;23.27;12.65;;;;;;;12.36;65.86;95422.03;5027742;28;20200;-68
2022/10/25 06:28:51;;;;;;;20.48;11.25;;;;;;;12.40;65.58;95414.63;5026076;28;20179;-68
2022/10/25 06:31:18;;;;;;;21.20;12.43;;;;;;;12.54;65.03;95418.56;5024424;28;20637;-68
2022/10/25 06:33:44;;;;;;;21.27;10.80;;;;;;;12.51;64.55;95409.13;5022856;28;20768;-68
2022/10/25 06:36:15;;;;;;;22.02;10.75;;;;;;;12.74;63.25;95414.72;5025036;28;20186;-68
2022/10/25 06:38:42;;;;;;;26.13;10.48;;;;;;;12.98;62.48;95411.38;5022157;28;20209;-69
2022/10/25 06:41:12;;;;;;;22.80;10.75;;;;;;;13.10;61.51;95408.50;5023840;28;20186;-66
2022/10/25 06:43:38;;;;;;;24.08;10.63;;;;;;;13.01;63.80;95415.53;5025040;28;20792;-66
2022/10/25 06:46:08;;;;;;;22.73;11.52;;;;;;;13.07;62.51;95414.94;5023910;28;20273;-66
2022/10/25 06:48:34;;;;;;;23.13;11.82;;;;;;;13.11;63.28;95426.00;5039453;28;20236;-68
2022/10/25 06:51:04;;;;;;;21.77;11.27;;;;;;;13.10;63.32;95419.88;5026653;28;20194;-69
2022/10/25 06:53:29;;;;;;;18.73;11.68;;;;;;;13.12;64.89;95412.63;5021818;28;20267;-68
2022/10/25 06:56:02;;;;;;;21.55;11.15;;;;;;;13.04;63.41;95417.84;5024032;28;20191;-67
2022/10/25 06:58:29;;;;;;;23.63;11.18;;;;;;;13.12;63.16;95412.63;5017296;28;20174;-66
2022/10/25 07:01:18;;;;;;;23.85;11.60;;;;;;;13.26;63.83;95419.16;5027814;28;20193;-65
2022/10/25 07:03:45;;;;;;;28.30;13.15;;;;;;;13.33;64.81;95416.72;5025405;28;20201;-71
2022/10/25 07:06:13;;;;;;;27.10;11.25;;;;;;;13.40;63.01;95412.47;5019889;28;20182;-71
2022/10/25 07:08:41;;;;;;;25.00;11.00;;;;;;;13.55;62.72;95410.88;5020393;28;20506;-70
2022/10/25 07:11:11;;;;;;;25.55;11.88;;;;;;;13.66;61.63;95412.38;5025161;28;20233;-70
2022/10/25 07:13:37;;;;;;;24.98;11.73;;;;;;;13.58;62.98;95405.25;5023635;28;20174;-70
2022/10/25 07:16:04;;;;;;;25.27;13.57;;;;;;;13.71;63.00;95401.31;5027704;28;20228;-70
2022/10/25 07:18:31;;;;;;;25.92;14.63;;;;;;;13.72;61.71;95408.25;5022627;28;20197;-70
2022/10/25 07:21:05;;;;;;;29.33;16.15;;;;;;;13.73;62.32;95401.97;5032519;28;20182;-66
2022/10/25 07:23:31;;;;;;;28.10;16.48;;;;;;;13.76;63.25;95397.19;5028768;28;20265;-68
2022/10/25 07:25:57;;;;;;;30.95;18.90;;;;;;;13.80;62.81;95397.72;5026934;28;20182;-68
2022/10/25 07:28:23;;;;;;;34.53;18.52;;;;;;;13.77;62.69;95395.41;5029568;28;20236;-68
2022/10/25 07:30:48;;;;;;;38.83;20.45;;;;;;;13.96;61.44;95400.38;5029876;28;20645;-66
2022/10/25 07:33:16;;;;;;;33.55;20.02;;;;;;;14.01;61.83;95395.44;5032213;28;20218;-67
2022/10/25 07:35:49;;;;;;;28.23;18.50;;;;;;;14.10;61.88;95393.63;5030989;28;20208;-66
2022/10/25 07:38:15;;;;;;;38.22;19.85;;;;;;;14.10;62.43;95397.06;5026450;28;20214;-66
2022/10/25 07:40:40;;;;;;;32.92;18.13;;;;;;;14.09;61.89;95392.78;5031858;28;20192;-66
2022/10/25 07:43:06;;;;;;;32.55;17.05;;;;;;;14.27;60.17;95395.28;5028318;28;20183;-67
2022/10/25 07:45:32;;;;;;;31.02;16.63;;;;;;;14.42;59.91;95389.31;5032303;28;20190;-67
2022/10/25 07:47:57;;;;;;;38.70;17.92;;;;;;;14.56;59.72;95393.97;5023398;28;20233;-68
2022/10/25 07:50:23;;;;;;;28.02;18.38;;;;;;;14.82;58.61;95393.78;5023664;28;20824;-67
2022/10/25 07:52:48;;;;;;;33.80;18.83;;;;;;;14.91;58.54;95395.38;5028820;28;20183;-67
2022/10/25 07:55:14;;;;;;;29.67;19.20;;;;;;;14.80;59.71;95392.28;5022779;28;20217;-67
2022/10/25 07:57:39;;;;;;;34.83;19.13;;;;;;;14.98;58.34;95384.97;5024862;28;20197;-67
2022/10/25 08:00:06;;;;;;;30.95;18.30;;;;;;;14.99;58.69;95389.25;5025410;28;20209;-65
2022/10/25 08:02:32;;;;;;;33.17;19.05;;;;;;;15.08;57.92;95376.84;5019583;28;20195;-68
2022/10/25 08:04:57;;;;;;;36.83;19.02;;;;;;;15.13;57.92;95377.97;5029142;28;20174;-67
2022/10/25 08:07:23;;;;;;;26.45;17.83;;;;;;;15.08;59.46;95385.59;5023965;28;20185;-67
2022/10/25 08:09:48;;;;;;;30.88;16.42;;;;;;;15.15;58.56;95386.53;5026576;28;20175;-69
2022/10/25 08:12:14;;;;;;;26.13;17.80;;;;;;;15.24;58.81;95387.38;5025855;28;20196;-70
2022/10/25 08:14:39;;;;;;;37.10;16.45;;;;;;;15.33;57.52;95388.97;5030606;28;20242;-70
2022/10/25 08:17:05;;;;;;;24.50;15.80;;;;;;;15.36;56.46;95378.03;5016829;28;20195;-69
2022/10/25 08:19:30;;;;;;;27.98;15.25;;;;;;;15.50;55.74;95376.47;5008371;28;20190;-69
2022/10/25 08:21:56;;;;;;;28.92;13.70;;;;;;;15.60;55.36;95370.97;5027952;28;20179;-69
2022/10/25 08:24:21;;;;;;;25.05;13.70;;;;;;;15.60;55.80;95368.31;5022384;28;20182;-68
2022/10/25 08:26:46;;;;;;;30.55;14.05;;;;;;;15.67;56.09;95371.94;5019241;28;20182;-67
2022/10/25 08:29:13;;;;;;;28.65;12.55;;;;;;;15.83;55.35;95369.22;5026891;28;20328;-67
2022/10/25 08:31:38;;;;;;;23.17;13.57;;;;;;;15.84;55.51;95362.06;5023605;28;20634;-67
2022/10/25 08:34:03;;;;;;;29.15;13.52;;;;;;;16.00;54.33;95369.09;5021578;28;20307;-71
2022/10/25 08:36:29;;;;;;;22.10;12.68;;;;;;;16.08;55.81;95366.38;5019658;28;20194;-64
2022/10/25 08:38:54;;;;;;;21.38;12.18;;;;;;;16.18;53.41;95363.50;5020248;28;20206;-65
2022/10/25 08:41:34;;;;;;;22.85;11.98;;;;;;;16.34;53.88;95359.88;5027335;28;20273;-66
2022/10/25 08:44:11;;;;;;;21.77;10.65;;;;;;;16.49;52.33;95358.06;5028060;28;20179;-66
2022/10/25 08:46:42;;;;;;;20.65;10.48;;;;;;;16.61;52.05;95359.31;5027898;28;20232;-69
2022/10/25 08:49:39;;;;;;;18.23;9.35;;;;;;;16.66;51.97;95362.25;5024776;28;20185;-67
2022/10/25 08:52:14;;;;;;;22.48;9.48;;;;;;;16.71;51.78;95351.91;5030164;28;20210;-68
2022/10/25 08:54:43;;;;;;;21.33;9.85;;;;;;;16.89;51.06;95346.28;5017832;28;20234;-68
2022/10/25 08:57:28;;;;;;;22.65;9.60;;;;;;;17.05;51.14;95339.13;5030050;28;20194;-68
2022/10/25 09:00:19;;;;;;;21.00;10.18;;;;;;;17.16;51.26;95342.16;5024972;28;20649;-68
2022/10/25 09:02:48;;;;;;;30.73;11.05;;;;;;;17.29;51.08;95338.00;5021393;28;20182;-68
2022/10/25 09:05:36;;;;;;;26.80;10.23;;;;;;;17.38;50.60;95343.03;5019710;28;20194;-69
2022/10/25 09:08:14;;;;;;;18.88;9.98;;;;;;;17.59;49.11;95341.44;4985695;28;20203;-68
2022/10/25 09:11:16;;;;;;;21.88;9.80;;;;;;;17.75;47.75;95330.56;4975014;28;20230;-68
2022/10/25 09:14:06;;;;;;;21.45;8.35;;;;;;;17.71;47.56;95326.63;4965391;28;20235;-68
2022/10/25 09:16:50;;;;;;;18.88;8.48;;;;;;;17.89;47.50;95339.53;4967742;28;20195;-63
2022/10/25 09:19:32;;;;;;;21.25;8.38;;;;;;;18.08;47.40;95336.25;4971938;28;20196;-66
2022/10/25 09:22:03;;;;;;;19.15;8.75;;;;;;;18.13;46.73;95334.88;4972538;28;20187;-66
2022/10/25 09:24:37;;;;;;;18.08;9.23;;;;;;;18.26;47.10;95337.66;4980829;28;20237;-66
2022/10/25 09:27:26;;;;;;;18.20;9.70;;;;;;;18.28;46.96;95333.78;4969854;28;20199;-68
2022/10/25 09:30:00;;;;;;;24.08;10.13;;;;;;;18.50;47.04;95355.88;4972922;28;20198;-67
2022/10/25 09:32:52;;;;;;;21.23;10.02;;;;;;;18.67;46.84;95337.75;4971877;28;20204;-68
2022/10/25 09:35:23;;;;;;;25.75;10.65;;;;;;;18.81;46.50;95328.03;4915909;29;20229;-68
2022/10/25 09:37:54;;;;;;;20.90;10.65;;;;;;;18.92;46.72;95319.53;4915097;29;20217;-69
2022/10/25 09:40:22;;;;;;;21.88;10.70;;;;;;;19.06;46.75;95325.75;4916735;29;20585;-69
2022/10/25 09:43:00;;;;;;;22.02;11.80;;;;;;;19.13;46.60;95317.78;4917062;29;20241;-67
2022/10/25 09:45:39;;;;;;;24.20;12.13;;;;;;;19.22;46.47;95311.28;4945512;29;20204;-67
2022/10/25 09:48:04;;;;;;;19.15;11.05;;;;;;;19.35;46.92;95308.66;4931026;29;20200;-67
2022/10/25 09:50:41;;;;;;;23.95;10.45;;;;;;;19.44;46.73;95303.97;4931355;29;20206;-68
2022/10/25 09:53:11;;;;;;;20.83;11.15;;;;;;;19.41;44.92;95304.38;4948293;29;20239;-69
2022/10/25 09:55:45;;;;;;;24.08;11.55;;;;;;;19.41;44.89;95298.22;4934802;29;20194;-69
2022/10/25 09:58:36;;;;;;;24.30;11.40;;;;;;;19.48;44.42;95307.06;4949161;29;20232;-68
2022/10/25 10:01:14;;;;;;;22.00;10.32;;;;;;;19.58;45.16;95300.31;4952393;29;20563;-68
2022/10/25 10:03:40;;;;;;;25.75;10.85;;;;;;;19.68;45.24;95291.97;4945305;28;20256;-68
2022/10/25 10:06:21;;;;;;;27.52;11.27;;;;;;;19.77;45.07;95293.41;4931562;29;20732;-68
2022/10/25 10:08:50;;;;;;;25.38;11.00;;;;;;;19.76;45.05;95285.63;4933319;29;20213;-69
2022/10/25 10:11:18;;;;;;;20.45;10.85;;;;;;;19.69;44.77;95280.28;4940266;28;20240;-68
2022/10/25 10:13:54;;;;;;;26.25;11.25;;;;;;;19.82;44.70;95280.28;5000822;28;20234;-68
2022/10/25 10:16:25;;;;;;;29.45;11.60;;;;;;;19.95;44.06;95270.69;4995675;28;20312;-68
2022/10/25 10:18:55;;;;;;;29.38;12.02;;;;;;;19.95;43.90;95273.34;5004646;28;20665;-69
2022/10/25 10:21:22;;;;;;;24.70;11.38;;;;;;;20.07;44.86;95268.22;5002253;28;20186;-68
2022/10/25 10:23:48;;;;;;;19.80;10.15;;;;;;;20.04;43.60;95264.91;4993446;28;20811;-68
2022/10/25 10:26:25;;;;;;;22.38;10.23;;;;;;;20.11;45.35;95261.44;5002658;28;20191;-68
2022/10/25 10:29:10;;;;;;;24.25;10.63;;;;;;;20.15;45.02;95260.00;5012803;28;20520;-68
2022/10/25 10:31:38;;;;;;;20.40;9.95;;;;;;;20.21;43.64;95259.19;5003024;28;20193;-68
2022/10/25 10:34:07;;;;;;;17.17;9.35;;;;;;;20.27;44.40;95248.50;5004328;28;20254;-68
2022/10/25 10:36:34;;;;;;;17.17;9.20;;;;;;;20.35;43.61;95241.31;5004799;28;20244;-68
2022/10/25 10:39:19;;;;;;;24.02;10.35;;;;;;;20.48;42.33;95241.31;5013026;28;20225;-68
2022/10/25 10:42:13;;;;;;;20.42;10.20;;;;;;;20.56;43.54;95237.63;5009172;28;20174;-68
2022/10/25 10:44:38;;;;;;;24.70;11.00;;;;;;;20.60;43.41;95231.63;5000896;28;20206;-68
2022/10/25 10:47:18;;;;;;;19.90;10.27;;;;;;;20.67;41.02;95227.09;5000968;28;20226;-67
2022/10/25 10:49:43;;;;;;;19.73;8.55;;;;;;;20.78;40.66;95227.50;5006981;28;20189;-68
2022/10/25 10:52:35;;;;;;;18.95;9.77;;;;;;;20.90;41.38;95217.78;5004782;28;20183;-67
2022/10/25 10:55:01;;;;;;;23.70;10.43;;;;;;;21.05;40.69;95223.69;5005713;28;20206;-67
2022/10/25 10:57:34;;;;;;;21.60;9.13;;;;;;;21.19;39.97;95220.97;5006699;28;20187;-67
2022/10/25 11:00:01;;;;;;;22.80;9.45;;;;;;;21.26;39.90;95219.09;5004726;28;20210;-70
2022/10/25 11:02:40;;;;;;;26.15;10.23;;;;;;;21.45;39.85;95220.88;4994083;28;20179;-69
2022/10/25 11:05:25;;;;;;;27.33;10.38;;;;;;;21.64;37.81;95212.94;4999051;28;20179;-71
2022/10/25 11:08:08;;;;;;;23.25;8.85;;;;;;;21.83;38.65;95214.66;4997546;28;20191;-69
2022/10/25 11:10:37;;;;;;;21.65;10.02;;;;;;;21.85;39.41;95211.78;5006640;28;20604;-69
2022/10/25 11:13:07;;;;;;;27.02;10.73;;;;;;;21.90;38.67;95214.63;5002951;28;20179;-67
2022/10/25 11:15:48;;;;;;;17.77;9.18;;;;;;;22.12;38.22;95207.03;5007403;28;20257;-67
2022/10/25 11:18:14;;;;;;;17.90;8.45;;;;;;;22.30;37.08;95209.78;5014537;28;20194;-68
2022/10/25 11:21:15;;;;;;;19.27;8.77;;;;;;;22.50;37.43;95201.53;5000209;28;20195;-68
2022/10/25 11:24:04;;;;;;;16.35;8.02;;;;;;;22.79;35.76;95204.56;4991995;28;20325;-68
2022/10/25 11:26:50;;;;;;;19.85;9.35;;;;;;;23.07;34.74;95193.34;5009015;28;20190;-68
2022/10/25 11:29:35;;;;;;;23.27;8.32;;;;;;;23.30;34.90;95181.88;4994496;28;20203;-68
2022/10/25 11:32:17;;;;;;;19.90;8.93;;;;;;;23.49;34.99;95182.66;5005744;28;20279;-72
2022/10/25 11:34:49;;;;;;;20.73;9.23;;;;;;;23.76;33.58;95175.88;4992113;28;20685;-67